KMMV

Mc Minnville Municipal Airport

Mc Minnville, Oregon, USA
METAR KMMV 221653Z AUTO 00000KT 10SM CLR 18/12 A2992 RMK AO2 SLP131 T01780117
Observed Flight Rules
May-22 @ 16:53 UTC (an hour ago) Visual Flight Rules
Visibility Clouds
10 miles
  • Clear skies
Temperatures Readings
Current 18°C / 64°F
Dewpoint 12°C / 54°F
Humidity 68%
Altimeter 29.92" Hg
Pressure 1013.1 hPa
Elevation 48
METAR KMMV 221653Z AUTO 00000KT 10SM CLR 18/12 A2992 RMK AO2 SLP131 T01780117
Observed Flight Rules
May-22 @ 16:53 UTC
(an hour ago)
VFR
Clouds
  • Clear skies
Temperature Dewpoint
18°C / 64°F 12°C / 54°F
Humidity Altimeter Pressure
68% 29.92" Hg 1013.1 hPa